Terminal Aerodrome Forecast
Issued by NWS

Home | Current Version | Previous Version | Text Only | Print | Product List | Glossary On
Versions: 1 2 3 4 5 6 7 8 9 10 11 12 13 14
000
FTUS44 KLIX 291208 AAA
TAFGPT
TAF AMD
KGPT 291208Z 2912/3012 27005KT P6SM SCT100 SCT250
     FM291300 29009KT P6SM -SHRA VCTS BKN040CB BKN150
     FM291800 28009KT P6SM -SHRA VCTS BKN050CB OVC070
     FM300200 29007KT P6SM BKN050=

USA.gov is the U.S. government's official web portal to all federal, state and local government web resources and services.